Ely, Nevada Weather observations

Data are for observation ending at time listed.
 Day   Time    Ave.   Ave.  Ave.  Vector   Max.   Stn.    Total    Solar   Ave.  
  of    of     Air    Rel.  Wind   Wind    Wind   Baro.  Precip.   Rad.    Soil  
Year   Day     Temp.  Hum.  Speed  Dir.    Gust   Pres.                    Temp. 
2014   (PST)    F      %     mph   deg.    mph     mb.     in.     W/m2     F   
------------------------------------------------------------------------------
 260   15:50   82.3    22   15.6   145     22.8   807.7    0.00     130    83.4
 260   16:00   81.4    22   12.3   147     17.6   807.7    0.00     102    82.9
 260   16:10   82.2    22   12.3   131     18.1   807.7    0.00     287    82.4
 260   16:20   82.6    22   10.1   155     15.3   807.7    0.00     335    82.1
 260   16:30   82.4    23   19.6   143     29.3   807.7    0.00     318    82.0
 260   16:40   80.6    22   23.0   146     31.1   807.8    0.00     231    82.0
 260   16:50   79.2    22   21.1   145     28.1   807.9    0.00     168    81.6
 260   17:00   78.5    24   19.7   145     29.5   808.0    0.00     137    81.0
 260   17:10   76.3    27   12.8   135     20.6   808.1    0.00      32    80.4
 260   17:20   75.8    28    8.4   120     15.5   808.1    0.00      20    79.8
 260   17:30   74.9    30    7.4   130     12.9   808.2    0.00      20    79.1
 260   17:40   73.8    32    9.7   150     14.2   808.3    0.00      16    78.4
 260   17:50   73.3    34    9.7   135     13.6   808.3    0.00       7    77.8
 260   18:00   72.6    34    8.1   142     10.4   808.4    0.00       3    77.3
 260   18:10   72.3    35    7.1   125     10.2   808.4    0.00       0    76.8
 260   18:20   70.8    38    7.3   149      9.5   808.5    0.00       0    76.3
 260   18:30   70.6    38    6.8   158     11.0   808.6    0.00       0    75.8
 260   18:40   68.1    44    5.4   178      7.5   808.7    0.00       0    75.3
 260   18:50   69.9    41    7.4   131     10.7   808.8    0.00       0    74.8
 260   19:00   69.8    42    7.6   174     10.7   808.9    0.00       0    74.4
 260   19:10   66.7    51    6.5   182      9.4   808.9    0.00       0    74.0
 260   19:20   65.8    56    6.7   168     10.5   808.9    0.00       0    73.5
 260   19:30   64.3    59    6.8   185      9.7   809.0    0.00       0    73.1
 260   19:40   64.1    58    8.2   186     11.9   809.0    0.00       0    72.6
 260   19:50   64.4    57    8.4   180     14.1   809.0    0.00       0    72.2
 260   20:00   63.1    60    7.4   181     12.8   809.0    0.00       0    71.8
 260   20:10   63.2    58    8.3   173     12.3   809.0    0.00       0    71.4
 260   20:20   62.2    60    7.2   185      9.6   809.0    0.00       0    71.0
 260   20:30   61.7    58    8.3   196     10.1   809.1    0.00       0    70.7
 260   20:40   61.6    57   10.3   189     13.9   809.2    0.00       0    70.3
 260   20:50   62.5    54   11.2   185     15.7   809.2    0.00       0    69.9
 260   21:00   62.1    56    9.6   180     15.1   809.1    0.00       0    69.6
 260   21:10   60.5    60    8.0   181     10.9   809.2    0.00       0    69.3
 260   21:20   59.5    62   10.6   191     13.2   809.2    0.00       0    69.0
 260   21:30   59.9    62   11.1   182     14.4   809.1    0.00       0    68.6
 260   21:40   61.4    57   10.3   175     14.7   809.1    0.00       0    68.4
 260   21:50   62.9    51    9.5   178     12.9   809.1    0.00       1    68.1
 260   22:00   63.4    50    7.7   170     11.7   809.1    0.00       0    67.9
 260   22:10   62.6    51    7.8   166     12.6   809.2    0.00       0    67.8
 260   22:20   60.2    57    7.6   169     11.2   809.2    0.00       0    67.6
 260   22:30   59.3    58    8.5   164     12.5   809.2    0.00       0    67.4
 260   22:40   58.6    60    8.3   169     11.3   809.2    0.00       1    67.2
 260   22:50   57.9    62    7.1   170      9.9   809.2    0.00       0    66.9
 260   23:00   57.8    61    7.5   173     10.2   809.3    0.00       0    66.6
 260   23:10   59.1    58    8.3   172     12.2   809.3    0.00       0    66.3
 260   23:20   61.2    54    9.1   177     14.9   809.3    0.00       0    66.1
 260   23:30   61.3    53    7.7   180     11.1   809.4    0.00       0    66.0
 260   23:40   60.5    54    8.2   186     11.7   809.4    0.00       0    65.9
 260   23:50   60.5    54    9.4   194     12.2   809.4    0.00       0    65.8
 261    0:00   61.1    53    8.7   182     11.8   809.3    0.00       0    65.6
 261    0:10   61.8    52    8.3   178     12.9   809.2    0.00       0    65.5
 261    0:20   62.0    51    9.1   181     12.2   809.2    0.00       0    65.5
 261    0:30   62.4    51    9.5   180     13.3   809.2    0.00       0    65.4
 261    0:40   63.5    49    8.4   165     12.6   809.2    0.00       0    65.4
 261    0:50   62.9    50    9.1   180     12.9   809.2    0.00       0    65.4
 261    1:00   62.9    51    8.1   175     11.5   809.2    0.00       0    65.4
 261    1:10   62.3    52    8.1   172     11.8   809.2    0.00       0    65.3
 261    1:20   60.1    57    7.5   170     11.5   809.1    0.00       0    65.3
 261    1:30   58.6    60    9.6   162     14.6   809.0    0.00       0    65.1
 261    1:40   58.0    62   10.6   163     16.1   809.0    0.00       0    64.9
 261    1:50   57.7    62    9.8   170     13.2   809.0    0.00       0    64.7
 261    2:00   57.6    63    8.6   169     12.2   809.0    0.00       0    64.5
 261    2:10   56.7    64    9.7   180     14.5   808.9    0.00       0    64.3
 261    2:20   56.5    65   10.1   183     14.6   808.8    0.00       0    64.1
 261    2:30   56.2    66   10.2   167     15.7   808.8    0.00       0    63.9
 261    2:40   56.7    65   11.9   175     18.0   808.7    0.00       1    63.7
 261    2:50   56.4    66   10.2   169     15.4   808.7    0.00       1    63.5
 261    3:00   57.0    64    9.4   173     12.7   808.7    0.00       1    63.4
 261    3:10   59.5    59    9.9   178     15.5   808.7    0.00       0    63.2
 261    3:20   58.4    61    9.2   174     13.1   808.7    0.00       0    63.2
 261    3:30   59.2    60    9.7   175     14.2   808.6    0.00       1    63.1
 261    3:40   57.3    63   10.9   178     15.8   808.7    0.00       0    63.1
 261    3:50   57.6    63   10.4   176     14.8   808.7    0.00       0    63.0
 261    4:00   56.9    64    9.1   175     12.3   808.7    0.00       1    62.9
 261    4:10   57.3    64    9.3   176     12.9   808.7    0.00       0    62.8
 261    4:20   57.2    64    8.2   171     10.8   808.7    0.00       1    62.7
 261    4:30   57.6    64    8.0   166     11.5   808.8    0.00       0    62.5
 261    4:40   58.2    62    7.8   170     11.4   808.8    0.00       0    62.5
 261    4:50   57.3    64    7.9   169     11.1   808.8    0.00       0    62.4
 261    5:00   56.7    65    7.9   172     11.9   808.8    0.00       0    62.3
 261    5:10   57.2    65    7.8   169     10.6   808.8    0.00       1    62.2
 261    5:20   57.2    65    8.3   174     12.3   808.8    0.00       6    62.2
 261    5:30   59.0    62    8.4   176     13.2   808.9    0.00       7    62.1
 261    5:40   58.0    64    8.0   174     10.7   809.0    0.00       9    62.1
 261    5:50   58.5    63    8.1   177     10.7   809.1    0.00      19    62.1
 261    6:00   59.0    63    7.6   174     11.0   809.2    0.00      20    62.1
 261    6:10   59.7    62    8.0   179     10.8   809.3    0.00      24    62.2
 261    6:20   61.1    60    7.8   167     11.0   809.2    0.00     104    62.2
 261    6:30   61.9    59    7.5   165     11.7   809.2    0.00     168    62.3
 261    6:40   61.6    60    7.1   180     10.2   809.2    0.00      62    62.4
 261    6:50   60.8    62    5.2   172      7.2   809.2    0.00      38    62.6
 261    7:00   61.9    60    5.2   184      8.7   809.2    0.00     178    62.7
 261    7:10   64.6    56    4.7   167      8.4   809.1    0.00     295    63.1
 261    7:20   67.1    52    7.3   211     12.2   809.0    0.00     351    64.3
 261    7:30   68.9    50    7.8   196     10.4   809.1    0.00     387    65.7
 261    7:40   70.7    47   10.2   134     17.9   808.9    0.00     421    67.2
 261    7:50   71.6    45   12.0   140     16.8   808.8    0.00     457    68.6
 261    8:00   72.6    44   10.9   123     17.7   808.8    0.00     492    69.9
 261    8:10   72.8    43   12.6   130     21.0   808.8    0.00     525    71.3
 261    8:20   73.1    42   12.9   130     20.5   808.8    0.00     559    72.5
 261    8:30   73.4    41   12.9   135     19.0   808.7    0.00     594    73.6
 261    8:40   73.9    40   12.9   141     21.4   808.7    0.00     632    74.7
 261    8:50   74.5    39   11.0   139     17.9   808.7    0.00     673    75.8
 261    9:00   74.8    39   12.5   138     22.1   808.6    0.00     705    76.9
 261    9:10   75.1    38   16.0   143     26.5   808.5    0.00     737    78.0
 261    9:20   75.2    38   13.7   134     22.0   808.4    0.00     789    79.0
 261    9:30   75.3    37   14.3   132     23.3   808.3    0.00     778    79.9
 261    9:40   76.2    35   13.7   122     22.4   808.3    0.00     790    80.7
 261    9:50   76.9    34   14.7   130     25.6   808.2    0.00     850    81.5
 261   10:00   76.4    35   13.9   123     24.3   808.1    0.00     620    82.2
 261   10:10   76.8    34   17.0   124     27.1   808.0    0.00     948    82.5
 261   10:20   76.9    34   15.5   139     24.4   807.9    0.00     847    83.0
 261   10:30   77.5    34   16.1   134     28.1   807.8    0.00     988    83.7
 261   10:40   77.9    33   15.7   144     26.4   807.7    0.00     964    84.6
 261   10:50   77.5    33   19.1   141     29.1   807.6    0.00     718    85.3
 261   11:00   77.0    34   17.8   146     26.0   807.5    0.00     287    85.1
 261   11:10   76.3    34   14.9   153     24.2   807.5    0.00     373    83.9
 261   11:20   77.2    33   17.8   147     24.8   807.4    0.00     873    83.2
 261   11:30   77.6    33   16.9   141     25.9   807.3    0.00     476    83.7
 261   11:40   76.9    33   16.0   135     25.5   807.3    0.00     333    83.6
 261   11:50   77.9    32   16.1   136     23.9   807.2    0.00     552    83.1
 261   12:00   77.2    33   16.4   130     24.8   807.1    0.00     314    82.9
 261   12:10   78.0    32   15.5   127     27.9   806.9    0.00     657    82.6
 261   12:20   78.3    31   17.4   128     27.4   806.8    0.00     652    82.7
 261   12:30   78.1    31   16.5   134     25.2   806.8    0.00     583    82.6
 261   12:40   79.2    29   16.1   136     24.3   806.5    0.00     931    82.2
 261   12:50   78.8    29   15.4   136     25.9   806.3    0.00     370    82.2
 261   13:00   80.1    27   14.6   144     21.5   806.2    0.00     832    82.3
 261   13:10   80.0    28   15.3   141     26.5   806.1    0.00     604    82.8
 261   13:20   80.0    28   15.4   144     26.4   806.0    0.00     457    83.2
 261   13:30   79.3    28   14.9   139     22.9   806.0    0.00     387    83.0
 261   13:40   79.2    29   12.4   142     20.2   805.9    0.00     155    82.8
 261   13:50   78.1    30   11.4   165     16.8   805.9    0.00      98    82.2
 261   14:00   78.8    30   10.1   165     17.7   805.7    0.00     507    81.6
 261   14:10   78.8    31   13.0   175     21.0   805.8    0.00     258    81.8
 261   14:20   79.3    30   16.5   196     24.5   805.7    0.00     417    81.7
 261   14:30   80.2    30   17.7   194     23.4   805.6    0.00     485    81.9
 261   14:40   79.6    30   18.6   199     25.0   805.5    0.00     504    82.1
 261   14:50   80.3    30   16.9   195     23.2   805.5    0.00     478    82.2
 261   15:00   80.4    30   15.0   197     25.9   805.5    0.00     414    82.3
 261   15:10   80.1    30   14.7   187     22.4   805.4    0.00     413    82.2
 261   15:20   80.8    28   15.8   191     21.5   805.3    0.00     469    81.9
 261   15:30   80.2    28   15.2   178     21.0   805.4    0.00     494    81.7
 261   15:40   81.1    28   12.8   183     19.4   805.5    0.00     378    81.6

Return to Ely, Nevada graphs page.


Western Regional Climate Center,wrcc@dri.edu